Time;durP1;ratioP1;P1;durP2;ratioP2;P2;SDS_P1;SDS_P2;PMS_P1;PMS_P2;Temp;Humidity;BMP_temperature;BMP_pressure;BME280_temperature;BME280_humidity;BME280_pressure;Samples;Min_cycle;Max_cycle;Signal;HPM_P1;HPM_P2
2022/12/14 00:01:42;;;;;;;1.80;1.73;;;;;;;-2.54;77.15;94110.22;4378484;32;20185;-57
2022/12/14 00:04:10;;;;;;;0.73;0.73;;;;;;;-2.70;77.74;94090.31;4371175;32;20223;-57
2022/12/14 00:06:35;;;;;;;0.95;0.95;;;;;;;-2.99;78.95;94103.44;4361699;32;20230;-57
2022/12/14 00:09:09;;;;;;;2.43;2.33;;;;;;;-2.77;78.41;94106.06;4365674;32;20288;-57
2022/12/14 00:11:34;;;;;;;1.25;1.25;;;;;;;-2.65;77.86;94098.91;4365384;32;20203;-56
2022/12/14 00:14:02;;;;;;;0.53;0.53;;;;;;;-2.34;76.49;94087.09;4383960;32;20285;-56
2022/12/14 00:16:31;;;;;;;0.90;0.90;;;;;;;-2.43;76.60;94080.75;4377975;32;20185;-57
2022/12/14 00:18:59;;;;;;;1.20;1.10;;;;;;;-2.64;77.43;94077.13;4360223;32;20246;-57
2022/12/14 00:21:26;;;;;;;1.85;0.88;;;;;;;-2.35;77.22;94082.12;4373255;32;20271;-57
2022/12/14 00:23:54;;;;;;;1.83;1.73;;;;;;;-2.43;76.77;94083.34;4349039;32;20200;-57
2022/12/14 00:26:23;;;;;;;2.00;1.42;;;;;;;-2.67;77.48;94092.41;4368532;32;20200;-56
2022/12/14 00:28:50;;;;;;;1.95;0.90;;;;;;;-2.56;77.27;94107.09;4365036;32;20189;-56
2022/12/14 00:31:15;;;;;;;1.02;1.02;;;;;;;-2.71;77.50;94125.06;4368068;32;20192;-57
2022/12/14 00:33:43;;;;;;;1.02;1.02;;;;;;;-2.53;77.15;94128.16;4386102;32;20199;-58
2022/12/14 00:36:10;;;;;;;1.62;1.52;;;;;;;-2.44;77.02;94120.72;4371776;32;20189;-58
2022/12/14 00:38:36;;;;;;;1.08;1.08;;;;;;;-2.52;77.03;94121.94;4367198;32;20189;-58
2022/12/14 00:41:03;;;;;;;0.82;0.82;;;;;;;-2.36;76.42;94116.91;4350454;32;20270;-58
2022/12/14 00:43:29;;;;;;;1.20;1.20;;;;;;;-2.30;75.96;94124.53;4366438;32;20206;-58
2022/12/14 00:45:54;;;;;;;1.97;1.87;;;;;;;-2.33;75.89;94121.62;4364917;32;20224;-58
2022/12/14 00:48:24;;;;;;;1.33;1.33;;;;;;;-2.38;76.18;94126.75;4367211;32;20189;-58
2022/12/14 00:50:50;;;;;;;1.08;1.08;;;;;;;-2.27;76.28;94121.41;4359971;32;20212;-59
2022/12/14 00:53:17;;;;;;;2.17;2.08;;;;;;;-2.45;77.10;94119.13;4373360;32;20176;-58
2022/12/14 00:55:46;;;;;;;1.15;1.15;;;;;;;-2.50;77.26;94109.50;4376734;32;20188;-58
2022/12/14 00:58:13;;;;;;;1.62;1.52;;;;;;;-2.63;77.65;94104.66;4370457;32;20244;-58
2022/12/14 01:00:39;;;;;;;1.45;1.45;;;;;;;-2.49;77.60;94103.25;4372842;32;20267;-57
2022/12/14 01:03:07;;;;;;;5.53;0.90;;;;;;;-2.45;77.30;94093.19;4367529;32;20207;-58
2022/12/14 01:05:34;;;;;;;2.05;1.95;;;;;;;-2.16;76.68;94101.56;4371555;32;20264;-57
2022/12/14 01:08:00;;;;;;;1.20;1.20;;;;;;;-2.11;76.94;94109.41;4376407;32;20192;-58
2022/12/14 01:10:25;;;;;;;0.90;0.90;;;;;;;-1.93;75.68;94118.66;4371489;32;20239;-58
2022/12/14 01:12:51;;;;;;;0.20;0.20;;;;;;;-2.02;75.51;94123.50;4357805;32;20181;-58
2022/12/14 01:15:17;;;;;;;1.40;1.27;;;;;;;-2.13;76.06;94120.03;4373506;32;20195;-59
2022/12/14 01:17:45;;;;;;;0.93;0.93;;;;;;;-1.92;75.65;94131.41;4363534;32;20230;-58
2022/12/14 01:20:12;;;;;;;2.25;1.60;;;;;;;-2.12;76.15;94134.59;4372152;32;20173;-63
2022/12/14 01:22:39;;;;;;;2.35;1.37;;;;;;;-2.15;76.01;94124.69;4379490;32;20229;-58
2022/12/14 01:25:06;;;;;;;1.85;0.98;;;;;;;-2.14;76.18;94120.28;4364704;32;20257;-57
2022/12/14 01:27:32;;;;;;;1.40;1.40;;;;;;;-2.08;76.21;94114.88;4360032;32;20414;-57
2022/12/14 01:29:58;;;;;;;3.60;0.93;;;;;;;-1.93;75.44;94105.69;4355219;32;20263;-58
2022/12/14 01:32:24;;;;;;;1.43;1.43;;;;;;;-1.82;74.77;94105.50;4369148;32;20215;-58
2022/12/14 01:34:50;;;;;;;0.90;0.90;;;;;;;-1.69;74.11;94099.13;4335837;32;20273;-58
2022/12/14 01:37:17;;;;;;;0.90;0.90;;;;;;;-1.79;74.51;94102.41;4375156;32;20195;-58
2022/12/14 01:39:43;;;;;;;1.20;1.10;;;;;;;-1.90;75.16;94094.78;4372030;32;20176;-59
2022/12/14 01:42:16;;;;;;;1.50;1.40;;;;;;;-2.25;76.12;94098.59;4372648;32;20248;-57
2022/12/14 01:45:02;;;;;;;1.58;1.52;;;;;;;-2.13;76.16;94096.66;4370622;32;20173;-62
2022/12/14 01:47:40;;;;;;;0.90;0.90;;;;;;;-2.05;75.84;94094.63;4359830;32;20192;-58
2022/12/14 01:50:30;;;;;;;0.98;0.95;;;;;;;-1.91;75.79;94098.41;4366321;32;20192;-58
2022/12/14 01:53:01;;;;;;;1.65;1.55;;;;;;;-1.92;76.02;94108.03;4350830;32;20189;-58
2022/12/14 01:55:40;;;;;;;1.02;1.02;;;;;;;-1.80;75.30;94105.25;4381099;32;20215;-58
2022/12/14 01:58:15;;;;;;;1.65;1.52;;;;;;;-1.97;75.01;94102.00;4375527;32;20184;-59
2022/12/14 02:00:43;;;;;;;1.48;1.48;;;;;;;-1.98;75.98;94097.81;4350648;32;20204;-57
2022/12/14 02:03:24;;;;;;;2.20;2.03;;;;;;;-2.27;77.12;94094.66;4372879;32;20189;-58
2022/12/14 02:05:54;;;;;;;2.83;2.62;;;;;;;-1.97;76.72;94099.41;4355424;32;20200;-58
2022/12/14 02:08:23;;;;;;;0.52;0.52;;;;;;;-2.10;76.56;94103.97;4371819;32;20185;-58
2022/12/14 02:10:52;;;;;;;1.85;1.85;;;;;;;-2.17;77.12;94099.97;4370267;32;20189;-58
2022/12/14 02:13:41;;;;;;;1.62;1.45;;;;;;;-2.30;76.85;94103.75;4368699;32;20201;-58
2022/12/14 02:16:07;;;;;;;0.68;0.68;;;;;;;-2.24;77.77;94102.75;4371256;32;20196;-58
2022/12/14 02:18:32;;;;;;;1.77;1.70;;;;;;;-2.09;77.36;94091.75;4332289;32;20383;-57
2022/12/14 02:21:50;;;;;;;1.27;1.20;;;;;;;-2.25;77.75;94088.22;4329790;32;20190;-58
2022/12/14 02:24:59;;;;;;;2.05;1.85;;;;;;;-2.13;77.06;94077.69;4371848;32;20238;-58
2022/12/14 02:27:46;;;;;;;1.73;1.62;;;;;;;-2.08;77.71;94095.94;4377004;32;20232;-58
2022/12/14 02:30:16;;;;;;;1.23;0.80;;;;;;;-2.20;78.26;94080.47;4348773;32;20189;-63
2022/12/14 02:33:18;;;;;;;2.00;1.90;;;;;;;-2.00;77.67;94077.28;4377942;32;20251;-62
2022/12/14 02:35:49;;;;;;;2.87;2.45;;;;;;;-2.07;77.65;94068.91;4352282;32;20260;-57
2022/12/14 02:38:48;;;;;;;1.40;1.23;;;;;;;-1.70;76.48;94063.78;4362798;32;20250;-58
2022/12/14 02:41:28;;;;;;;0.82;0.80;;;;;;;-1.96;77.93;94067.19;4357044;32;20173;-58
2022/12/14 02:44:14;;;;;;;2.22;2.12;;;;;;;-1.81;76.99;94056.91;4361138;32;20185;-57
2022/12/14 02:47:05;;;;;;;1.45;1.45;;;;;;;-1.84;77.19;94057.41;4333819;32;20192;-58
2022/12/14 02:49:52;;;;;;;1.05;1.05;;;;;;;-1.88;77.00;94061.56;4351763;32;20207;-58
2022/12/14 02:52:36;;;;;;;2.12;1.15;;;;;;;-1.81;76.76;94068.09;4365953;32;20248;-58
2022/12/14 02:55:23;;;;;;;1.55;1.45;;;;;;;-1.79;76.87;94055.66;4378539;32;23456;-58
2022/12/14 02:58:00;;;;;;;1.35;1.33;;;;;;;-1.91;77.23;94041.25;4366402;32;20256;-58
2022/12/14 03:00:31;;;;;;;1.52;1.23;;;;;;;-1.82;76.74;94032.75;4332796;32;20203;-58
2022/12/14 03:02:59;;;;;;;1.83;1.73;;;;;;;-1.81;77.20;94041.31;4357625;32;20201;-58
2022/12/14 03:05:24;;;;;;;5.72;2.33;;;;;;;-1.60;76.47;94027.44;4352937;32;20243;-57
2022/12/14 03:08:00;;;;;;;1.93;1.90;;;;;;;-1.44;75.80;94036.91;4361363;32;20275;-58
2022/12/14 03:10:49;;;;;;;3.30;1.48;;;;;;;-1.51;75.50;94035.59;4336613;32;20264;-58
2022/12/14 03:13:27;;;;;;;1.42;1.42;;;;;;;-1.55;76.01;94043.09;4329957;32;20233;-58
2022/12/14 03:15:58;;;;;;;2.87;1.35;;;;;;;-1.83;77.02;94033.78;4368010;32;20235;-58
2022/12/14 03:18:27;;;;;;;1.58;1.58;;;;;;;-1.65;76.59;94014.41;4368334;32;20198;-57
2022/12/14 03:20:56;;;;;;;2.10;1.58;;;;;;;-1.89;77.56;94008.03;4373395;32;20176;-57
2022/12/14 03:23:26;;;;;;;1.55;1.50;;;;;;;-1.81;77.31;94016.13;4334029;32;20193;-55
2022/12/14 03:26:24;;;;;;;0.57;0.57;;;;;;;-1.71;75.64;94010.22;4358368;32;20185;-58
2022/12/14 03:28:59;;;;;;;2.37;2.28;;;;;;;-1.73;76.27;94017.50;4377904;32;20207;-58
2022/12/14 03:31:46;;;;;;;1.35;1.25;;;;;;;-1.78;76.86;94009.66;4372414;32;20220;-58
2022/12/14 03:34:16;;;;;;;1.50;0.88;;;;;;;-1.80;76.62;94015.09;4362281;32;20177;-58
2022/12/14 03:36:55;;;;;;;1.90;1.73;;;;;;;-1.99;76.87;93997.53;4371284;32;20180;-58
2022/12/14 03:39:33;;;;;;;1.50;1.40;;;;;;;-1.77;76.46;94012.00;4352784;32;20216;-58
2022/12/14 03:42:10;;;;;;;1.65;1.42;;;;;;;-2.01;77.60;94015.19;4369511;32;20230;-57
2022/12/14 03:44:50;;;;;;;2.30;2.20;;;;;;;-2.01;77.60;94015.19;4375484;32;20244;-57
2022/12/14 03:47:52;;;;;;;1.30;1.30;;;;;;;-1.73;76.81;94012.28;4387985;32;20224;-58
2022/12/14 03:50:29;;;;;;;2.12;2.03;;;;;;;-1.74;76.74;94021.12;4355928;32;20241;-58
2022/12/14 03:53:21;;;;;;;1.48;1.48;;;;;;;-1.86;77.18;94012.69;4367193;32;20229;-58
2022/12/14 03:56:22;;;;;;;1.02;1.02;;;;;;;-1.58;76.60;94001.22;4368072;32;20232;-58
2022/12/14 03:59:21;;;;;;;4.10;3.17;;;;;;;-1.77;77.20;94014.59;4355480;32;20185;-58
2022/12/14 04:02:19;;;;;;;1.70;1.60;;;;;;;-1.68;76.96;94012.34;4353624;32;20193;-58
2022/12/14 04:05:02;;;;;;;1.00;1.00;;;;;;;-1.55;76.02;94011.91;4369700;32;20185;-58
2022/12/14 04:07:39;;;;;;;0.65;0.65;;;;;;;-1.53;76.15;94019.44;4345747;32;20219;-58
2022/12/14 04:19:00;;;;;;;1.37;1.10;;;;;;;-2.13;79.49;94028.34;4334564;32;20219;-58
2022/12/14 04:21:53;;;;;;;1.20;1.20;;;;;;;-1.78;78.72;94017.44;4358533;32;20231;-57
2022/12/14 04:27:47;;;;;;;1.60;1.58;;;;;;;-1.65;77.36;93988.41;4357418;32;20275;-58
2022/12/14 04:30:13;;;;;;;1.62;1.52;;;;;;;-1.42;76.65;93977.66;4354104;32;20197;-63
2022/12/14 04:32:48;;;;;;;1.40;1.30;;;;;;;-1.63;77.91;93970.75;4345737;32;20185;-57
2022/12/14 04:35:21;;;;;;;2.15;2.05;;;;;;;-1.88;78.98;93968.03;4374824;32;20192;-58
2022/12/14 04:37:50;;;;;;;1.33;1.33;;;;;;;-1.79;79.02;93961.31;4377885;32;20188;-58
2022/12/14 04:40:40;;;;;;;2.90;2.05;;;;;;;-2.10;80.34;93961.09;4359462;32;20185;-57
2022/12/14 04:43:12;;;;;;;0.90;0.90;;;;;;;-1.92;79.45;93953.97;4340222;32;20173;-56
2022/12/14 04:45:50;;;;;;;1.35;1.35;;;;;;;-1.77;78.73;93951.44;4342297;32;20238;-56
2022/12/14 04:48:30;;;;;;;2.70;2.53;;;;;;;-1.51;77.85;93945.38;4342656;32;20220;-58
2022/12/14 04:51:21;;;;;;;1.25;1.25;;;;;;;-1.75;78.24;93951.97;4345648;32;20197;-58
2022/12/14 04:53:55;;;;;;;0.88;0.88;;;;;;;-1.44;77.43;93945.91;4356602;32;20177;-58
2022/12/14 04:56:43;;;;;;;2.12;1.95;;;;;;;-1.69;78.16;93943.19;4358571;32;20200;-57
2022/12/14 04:59:10;;;;;;;2.42;2.30;;;;;;;-1.66;78.00;93947.88;4348873;32;20258;-58
2022/12/14 05:01:48;;;;;;;1.50;1.37;;;;;;;-1.56;78.18;93945.34;4371340;32;20272;-57
2022/12/14 05:04:19;;;;;;;1.20;1.20;;;;;;;-1.64;78.50;93937.22;4329353;32;20193;-58
2022/12/14 05:06:47;;;;;;;2.22;2.12;;;;;;;-1.52;78.30;93937.81;4347372;32;20247;-58
2022/12/14 05:09:40;;;;;;;1.02;1.02;;;;;;;-1.65;78.20;93946.06;4326465;32;20185;-63
2022/12/14 05:12:28;;;;;;;1.58;1.55;;;;;;;-1.85;79.03;93949.31;4364083;32;20190;-58
2022/12/14 05:15:16;;;;;;;1.35;1.25;;;;;;;-1.67;79.08;93953.34;4327544;32;20208;-58
2022/12/14 05:17:54;;;;;;;3.05;1.23;;;;;;;-1.54;78.38;93948.47;4322799;32;20200;-57
2022/12/14 05:20:23;;;;;;;0.80;0.80;;;;;;;-1.59;78.36;93951.03;4335833;32;20188;-58
2022/12/14 05:22:50;;;;;;;1.73;1.62;;;;;;;-1.69;78.96;93943.19;4340792;32;20181;-56
2022/12/14 05:25:17;;;;;;;1.48;1.40;;;;;;;-1.71;78.72;93947.84;4355555;32;20282;-56
2022/12/14 05:27:42;;;;;;;1.98;1.87;;;;;;;-1.55;78.60;93941.72;4365272;32;20268;-57
2022/12/14 05:30:10;;;;;;;1.10;1.10;;;;;;;-1.41;78.06;93935.00;4368553;32;20190;-57
2022/12/14 05:32:36;;;;;;;1.92;1.55;;;;;;;-1.64;78.21;93939.81;4355489;32;20288;-58
2022/12/14 05:35:04;;;;;;;2.17;1.62;;;;;;;-1.71;78.44;93936.69;4360543;32;20186;-57
2022/12/14 05:37:31;;;;;;;1.98;1.98;;;;;;;-1.72;78.96;93941.09;4338658;32;20193;-58
2022/12/14 05:39:56;;;;;;;1.73;1.58;;;;;;;-1.68;79.05;93930.97;4337556;32;20181;-58
2022/12/14 05:42:22;;;;;;;2.43;2.23;;;;;;;-1.44;78.05;93930.31;4354547;32;20197;-58
2022/12/14 05:44:47;;;;;;;1.60;1.60;;;;;;;-1.65;79.10;93931.25;4373729;32;20184;-56
2022/12/14 05:47:15;;;;;;;2.13;2.03;;;;;;;-1.44;78.23;93917.31;4364424;32;20243;-60
2022/12/14 05:49:40;;;;;;;1.95;1.87;;;;;;;-1.73;79.04;93913.53;4350370;32;20196;-58
2022/12/14 05:52:05;;;;;;;3.83;1.63;;;;;;;-1.69;79.01;93924.22;4351525;32;20204;-57
2022/12/14 05:54:32;;;;;;;1.13;1.03;;;;;;;-2.07;80.83;93924.22;4359725;32;20184;-58
2022/12/14 05:56:58;;;;;;;1.37;1.37;;;;;;;-1.90;80.94;93918.13;4378753;32;20185;-58
2022/12/14 05:59:24;;;;;;;1.90;1.90;;;;;;;-1.61;80.44;93903.72;4356331;32;20208;-57
2022/12/14 06:01:50;;;;;;;1.80;1.60;;;;;;;-1.33;79.40;93906.97;4363675;32;20192;-57
2022/12/14 06:04:16;;;;;;;1.77;1.20;;;;;;;-1.30;79.20;93901.25;4362194;32;20250;-58
2022/12/14 06:06:42;;;;;;;2.55;2.45;;;;;;;-1.43;79.88;93897.28;4378596;32;20180;-57
2022/12/14 06:09:12;;;;;;;3.40;2.37;;;;;;;-1.79;80.86;93896.34;4342617;32;20185;-58
2022/12/14 06:11:40;;;;;;;1.52;1.45;;;;;;;-1.86;81.21;93888.75;4350870;32;20191;-58
2022/12/14 06:14:08;;;;;;;2.53;1.15;;;;;;;-2.09;82.01;93887.34;4345506;32;20276;-57
2022/12/14 06:16:34;;;;;;;2.15;2.05;;;;;;;-1.83;81.81;93882.28;4359828;32;20577;-57
2022/12/14 06:19:34;;;;;;;2.20;2.03;;;;;;;-2.02;82.11;93883.72;4327360;32;20173;-57
2022/12/14 06:22:01;;;;;;;1.58;1.48;;;;;;;-1.61;81.34;93888.13;4342749;32;20199;-58
2022/12/14 06:24:26;;;;;;;1.50;1.40;;;;;;;-1.64;81.30;93893.81;4353256;32;20184;-58
2022/12/14 06:26:53;;;;;;;0.90;0.90;;;;;;;-1.65;81.52;93899.25;4330265;32;20191;-57
2022/12/14 06:29:19;;;;;;;1.85;1.85;;;;;;;-1.44;80.77;93895.72;4370259;32;20237;-57
2022/12/14 06:31:46;;;;;;;1.90;1.75;;;;;;;-1.56;80.91;93885.56;4363684;32;20204;-58
2022/12/14 06:34:15;;;;;;;1.65;1.55;;;;;;;-1.40;80.50;93881.97;4355988;32;20245;-61
2022/12/14 06:36:45;;;;;;;2.55;2.35;;;;;;;-1.68;81.43;93879.78;4359531;32;20202;-57
2022/12/14 06:39:14;;;;;;;1.35;1.33;;;;;;;-1.55;80.43;93873.34;4318099;32;20303;-57
2022/12/14 06:41:40;;;;;;;1.58;1.48;;;;;;;-1.69;81.68;93878.22;4341827;32;20207;-57
2022/12/14 06:44:10;;;;;;;3.03;1.63;;;;;;;-1.54;81.51;93872.31;4359787;32;20190;-58
2022/12/14 06:46:37;;;;;;;1.42;1.42;;;;;;;-1.50;81.88;93881.94;4356348;32;20384;-58
2022/12/14 06:49:05;;;;;;;1.35;1.35;;;;;;;-1.37;82.16;93874.69;4368180;32;20266;-57
2022/12/14 06:51:38;;;;;;;2.08;1.90;;;;;;;-1.21;81.29;93858.09;4362983;32;20252;-58
2022/12/14 06:54:04;;;;;;;1.62;1.52;;;;;;;-1.03;80.75;93865.41;4368765;32;20275;-58
2022/12/14 06:56:29;;;;;;;1.62;1.52;;;;;;;-1.33;81.34;93852.34;4371126;32;20184;-57
2022/12/14 06:58:56;;;;;;;3.30;3.10;;;;;;;-1.40;82.24;93855.19;4361546;32;20231;-57
2022/12/14 07:01:24;;;;;;;1.33;1.33;;;;;;;-1.19;81.58;93845.62;4331931;32;20181;-55
2022/12/14 07:03:54;;;;;;;1.05;1.02;;;;;;;-1.21;81.77;93835.47;4356716;32;20189;-58
2022/12/14 07:06:22;;;;;;;1.73;1.62;;;;;;;-1.40;83.09;93840.38;4350264;32;20189;-58
2022/12/14 07:08:52;;;;;;;1.80;1.80;;;;;;;-1.31;82.50;93839.88;4359867;32;20244;-59
2022/12/14 07:11:18;;;;;;;2.55;2.45;;;;;;;-1.44;83.35;93839.31;4364715;32;20212;-55
2022/12/14 07:13:44;;;;;;;2.00;1.07;;;;;;;-1.53;83.51;93848.66;4377509;32;20184;-58
2022/12/14 07:16:18;;;;;;;1.35;1.23;;;;;;;-1.22;83.09;93851.34;4383145;32;20211;-56
2022/12/14 07:18:50;;;;;;;2.53;2.42;;;;;;;-1.20;83.00;93833.66;4372140;32;20197;-57
2022/12/14 07:21:17;;;;;;;2.37;2.17;;;;;;;-1.28;84.08;93844.56;4341823;32;20216;-56
2022/12/14 07:23:46;;;;;;;1.50;1.40;;;;;;;-1.22;83.09;93827.94;4367628;32;20222;-58
2022/12/14 07:26:19;;;;;;;1.08;1.08;;;;;;;-1.54;84.40;93828.88;4362506;32;20188;-57
2022/12/14 07:28:45;;;;;;;2.35;2.25;;;;;;;-1.42;84.43;93826.84;4364281;32;20185;-57
2022/12/14 07:31:23;;;;;;;2.30;1.90;;;;;;;-1.53;85.36;93834.87;4377578;32;20192;-57
2022/12/14 07:34:12;;;;;;;1.77;1.02;;;;;;;-1.26;84.33;93834.69;4339863;32;20188;-44
2022/12/14 07:36:39;;;;;;;3.63;2.10;;;;;;;4.03;100.00;93801.69;4369017;32;20199;-42
2022/12/14 07:39:05;;;;;;;4.07;3.77;;;;;;;4.79;100.00;93803.63;4365405;32;20368;-42
2022/12/14 07:41:32;;;;;;;3.53;3.33;;;;;;;5.79;87.78;93798.25;4339998;32;20265;-42
2022/12/14 07:44:00;;;;;;;4.13;3.73;;;;;;;6.58;72.85;93797.53;4372242;32;20281;-45
2022/12/14 07:46:28;;;;;;;2.87;2.77;;;;;;;7.54;65.27;93792.06;4373066;32;20359;-42
2022/12/14 07:48:56;;;;;;;3.23;3.03;;;;;;;8.04;59.91;93789.69;4364306;32;20338;-43
2022/12/14 07:51:27;;;;;;;2.80;2.60;;;;;;;8.05;55.46;93793.88;4367476;32;20280;-42
2022/12/14 07:53:53;;;;;;;3.30;3.10;;;;;;;8.23;54.00;93798.00;4372158;32;20319;-42
2022/12/14 07:56:21;;;;;;;4.07;3.87;;;;;;;8.83;54.59;93794.38;4366071;32;20291;-43
2022/12/14 07:58:48;;;;;;;3.57;3.27;;;;;;;8.87;53.41;93795.28;4351591;32;20204;-57
2022/12/14 08:01:13;;;;;;;4.33;4.03;;;;;;;6.35;52.18;93817.91;4374750;32;20255;-57
2022/12/14 08:03:46;;;;;;;4.63;4.33;;;;;;;4.34;56.88;93817.66;4360110;32;20293;-58
2022/12/14 08:06:13;;;;;;;3.37;3.17;;;;;;;3.33;62.09;93818.28;4364655;32;20220;-58
2022/12/14 08:08:40;;;;;;;3.30;3.10;;;;;;;2.26;66.26;93815.50;4374885;32;20280;-58
2022/12/14 08:11:08;;;;;;;3.17;2.87;;;;;;;1.64;69.41;93823.16;4363835;32;20292;-56
2022/12/14 08:13:37;;;;;;;4.53;4.13;;;;;;;1.02;72.49;93821.25;4352817;32;20297;-55
2022/12/14 08:16:09;;;;;;;4.00;3.70;;;;;;;0.97;74.43;93808.22;4347044;32;20337;-56
2022/12/14 08:18:35;;;;;;;3.00;2.90;;;;;;;0.83;75.38;93800.19;4342689;32;20406;-57
2022/12/14 08:21:02;;;;;;;4.03;3.83;;;;;;;0.90;75.82;93797.28;4354154;32;20273;-56
2022/12/14 08:23:29;;;;;;;3.53;3.23;;;;;;;0.57;76.97;93790.97;4357317;32;20225;-58
2022/12/14 08:25:56;;;;;;;3.60;3.40;;;;;;;0.20;79.07;93783.56;4374293;32;20336;-57
2022/12/14 08:28:24;;;;;;;2.87;2.67;;;;;;;0.18;79.51;93786.44;4381344;32;20280;-58
2022/12/14 08:30:52;;;;;;;3.30;3.20;;;;;;;0.03;80.42;93788.31;4361392;32;20293;-58
2022/12/14 08:33:20;;;;;;;3.27;3.10;;;;;;;0.07;80.90;93779.69;4359354;32;20308;-58
2022/12/14 08:35:46;;;;;;;1.70;1.60;;;;;;;0.30;80.47;93768.66;4345958;32;20321;-56
2022/12/14 08:38:12;;;;;;;4.07;3.77;;;;;;;0.23;80.42;93751.72;4356898;32;20296;-58
2022/12/14 08:40:39;;;;;;;2.40;2.30;;;;;;;0.08;81.31;93754.41;4367988;32;21180;-57
2022/12/14 08:43:07;;;;;;;3.78;3.58;;;;;;;0.47;79.69;93757.88;4374173;32;20240;-58
2022/12/14 08:45:37;;;;;;;4.12;3.80;;;;;;;0.30;80.21;93747.78;4382715;32;20258;-58
2022/12/14 08:48:02;;;;;;;2.63;2.53;;;;;;;0.26;80.28;93764.25;4371324;32;20222;-59
2022/12/14 08:50:29;;;;;;;1.73;1.73;;;;;;;0.29;80.77;93774.91;4357980;32;20308;-58
2022/12/14 08:52:55;;;;;;;2.40;2.30;;;;;;;0.61;79.73;93764.09;4335786;32;20194;-59
2022/12/14 08:55:22;;;;;;;5.73;2.80;;;;;;;0.62;79.01;93770.84;4350249;32;20253;-59
2022/12/14 08:57:49;;;;;;;3.03;2.65;;;;;;;0.46;81.06;93771.19;4367462;32;20192;-58
2022/12/14 09:00:16;;;;;;;3.15;2.97;;;;;;;0.67;80.58;93759.59;4362019;32;20196;-58
2022/12/14 09:02:42;;;;;;;2.63;2.53;;;;;;;0.73;81.55;93750.69;4381024;32;20185;-59
2022/12/14 09:05:09;;;;;;;3.20;2.90;;;;;;;0.72;82.29;93743.91;4359049;32;20482;-59
2022/12/14 09:07:37;;;;;;;1.60;1.60;;;;;;;0.53;80.96;93750.81;4359740;32;20200;-58
2022/12/14 09:10:03;;;;;;;2.62;2.53;;;;;;;0.44;82.50;93737.53;4382131;32;20287;-58
2022/12/14 09:12:29;;;;;;;2.77;2.57;;;;;;;0.37;82.37;93736.31;4351455;32;20193;-57
2022/12/14 09:14:56;;;;;;;2.75;2.55;;;;;;;0.72;82.22;93737.91;4355802;32;20197;-58
2022/12/14 09:17:22;;;;;;;3.75;3.45;;;;;;;0.95;81.04;93737.25;4371245;32;20185;-57
2022/12/14 09:19:49;;;;;;;2.30;2.23;;;;;;;0.71;81.39;93737.13;4364343;32;20256;-60
2022/12/14 09:22:17;;;;;;;1.87;1.80;;;;;;;0.73;81.61;93742.87;4367043;32;20318;-59
2022/12/14 09:24:42;;;;;;;4.20;3.15;;;;;;;0.69;81.99;93734.78;4358930;32;20296;-59
2022/12/14 09:27:09;;;;;;;2.07;1.97;;;;;;;0.47;82.07;93725.81;4353775;32;20273;-59
2022/12/14 09:29:35;;;;;;;4.00;2.77;;;;;;;0.44;82.78;93727.13;4350232;32;20192;-57
2022/12/14 09:32:00;;;;;;;1.77;1.73;;;;;;;0.54;83.54;93729.69;4351911;32;20273;-55
2022/12/14 09:34:26;;;;;;;2.90;2.70;;;;;;;0.57;83.57;93731.75;4362257;32;20313;-57
2022/12/14 09:36:51;;;;;;;2.50;2.40;;;;;;;0.76;83.84;93720.69;4370617;32;20203;-58
2022/12/14 09:39:21;;;;;;;2.13;2.03;;;;;;;0.96;81.74;93715.31;4348138;32;20197;-58
2022/12/14 09:42:34;;;;;;;3.07;2.90;;;;;;;1.03;81.76;93715.78;4369297;32;20177;-58
2022/12/14 09:45:16;;;;;;;3.40;3.10;;;;;;;0.79;82.69;93717.53;4338717;32;20285;-58
2022/12/14 09:48:23;;;;;;;5.20;4.70;;;;;;;0.64;82.97;93706.13;4336690;32;20325;-57
2022/12/14 09:50:51;;;;;;;2.47;2.07;;;;;;;0.65;83.76;93702.47;4275836;33;20374;-58
2022/12/14 09:53:20;;;;;;;3.03;2.93;;;;;;;0.54;83.07;93703.59;4257352;33;20288;-58
2022/12/14 09:55:54;;;;;;;4.22;3.15;;;;;;;0.52;84.69;93691.88;4292305;33;20325;-58
2022/12/14 09:58:27;;;;;;;2.27;2.17;;;;;;;0.65;85.07;93686.81;4280724;33;20193;-57
2022/12/14 10:01:31;;;;;;;3.27;3.07;;;;;;;0.73;83.62;93682.06;4311051;33;20282;-58
2022/12/14 10:04:17;;;;;;;2.90;2.80;;;;;;;0.84;83.73;93665.28;4312282;32;20368;-58
2022/12/14 10:06:51;;;;;;;3.00;2.80;;;;;;;0.65;84.74;93654.72;4322851;32;20197;-58
2022/12/14 10:09:42;;;;;;;2.83;1.83;;;;;;;0.98;83.52;93658.38;4309349;33;20204;-58
2022/12/14 10:12:29;;;;;;;2.40;2.37;;;;;;;0.86;83.25;93666.56;4306535;33;20346;-58
2022/12/14 10:15:07;;;;;;;2.33;2.23;;;;;;;0.90;83.51;93648.53;4324640;32;20369;-59
2022/12/14 10:17:52;;;;;;;3.07;2.97;;;;;;;1.41;82.02;93642.84;4357104;32;20293;-60
2022/12/14 10:20:47;;;;;;;2.97;2.87;;;;;;;1.29;82.58;93630.94;4364505;32;20279;-62
2022/12/14 10:23:18;;;;;;;3.40;3.20;;;;;;;1.37;82.87;93630.31;4364109;32;20268;-58
2022/12/14 10:25:50;;;;;;;4.27;3.27;;;;;;;1.32;83.32;93624.38;4373155;32;20290;-58
2022/12/14 10:28:49;;;;;;;3.17;2.70;;;;;;;1.62;82.63;93618.03;4347012;32;20286;-58
2022/12/14 10:31:27;;;;;;;3.37;3.17;;;;;;;1.80;81.49;93617.28;4305543;32;20285;-58
2022/12/14 10:34:00;;;;;;;3.53;3.40;;;;;;;1.76;82.11;93610.28;4311748;32;20295;-58
2022/12/14 10:36:32;;;;;;;5.47;3.80;;;;;;;1.41;83.01;93608.88;4362872;32;20348;-58
2022/12/14 10:39:02;;;;;;;8.83;2.70;;;;;;;1.59;83.51;93598.47;4359135;32;20340;-58
2022/12/14 10:42:04;;;;;;;3.53;3.30;;;;;;;1.60;83.52;93602.66;4365537;32;20318;-59
2022/12/14 10:44:42;;;;;;;2.40;2.30;;;;;;;1.58;83.93;93614.44;4352479;32;20263;-58
2022/12/14 10:47:47;;;;;;;2.80;2.63;;;;;;;1.71;84.58;93603.28;4365053;32;20334;-57
2022/12/14 10:50:40;;;;;;;2.63;2.40;;;;;;;1.56;83.96;93606.09;4341553;32;20416;-58
2022/12/14 10:53:14;;;;;;;3.53;2.70;;;;;;;1.91;84.25;93607.47;4337291;32;20277;-58
2022/12/14 10:55:41;;;;;;;2.97;2.83;;;;;;;2.10;82.76;93597.81;4336268;32;20375;-59
2022/12/14 10:58:10;;;;;;;2.93;2.77;;;;;;;1.77;83.89;93610.00;4340583;32;20365;-59
2022/12/14 11:00:37;;;;;;;2.83;2.73;;;;;;;1.81;83.67;93597.94;4359932;32;20284;-59
2022/12/14 11:03:10;;;;;;;5.03;4.63;;;;;;;1.88;84.10;93595.75;4360798;32;20272;-57
2022/12/14 11:06:24;;;;;;;2.27;2.10;;;;;;;1.99;83.79;93601.63;4370918;32;20319;-58
2022/12/14 11:08:49;;;;;;;3.00;2.90;;;;;;;1.99;83.70;93599.78;4314946;33;20304;-59
2022/12/14 11:11:44;;;;;;;2.07;1.97;;;;;;;2.15;84.61;93586.50;4354904;32;20320;-58
2022/12/14 11:14:17;;;;;;;4.47;3.27;;;;;;;2.49;83.29;93581.81;4367785;32;20223;-58
2022/12/14 11:16:43;;;;;;;2.00;1.87;;;;;;;2.54;83.55;93579.09;4349776;32;20280;-57
2022/12/14 11:19:28;;;;;;;3.07;2.70;;;;;;;2.63;83.27;93581.84;4345950;32;20307;-57
2022/12/14 11:22:12;;;;;;;3.37;3.23;;;;;;;2.30;84.40;93588.88;4369895;32;20288;-58
2022/12/14 11:24:48;;;;;;;3.37;3.20;;;;;;;1.74;87.17;93592.28;4357571;32;20281;-58
2022/12/14 11:27:18;;;;;;;2.33;2.23;;;;;;;2.13;86.38;93565.84;4371199;32;20289;-57
2022/12/14 11:29:49;;;;;;;5.10;4.80;;;;;;;2.69;84.61;93552.69;4356530;32;20291;-57
2022/12/14 11:32:46;;;;;;;3.40;3.30;;;;;;;2.49;84.43;93570.56;4343215;32;20371;-58
2022/12/14 11:35:19;;;;;;;2.83;2.70;;;;;;;2.67;84.83;93565.28;4360573;32;20304;-58
2022/12/14 11:38:09;;;;;;;4.27;3.97;;;;;;;3.03;83.79;93556.81;4324576;32;20296;-58
2022/12/14 11:40:35;;;;;;;3.03;2.83;;;;;;;3.03;82.85;93567.28;4356057;32;20305;-59
2022/12/14 11:43:03;;;;;;;4.53;4.13;;;;;;;3.48;81.25;93559.66;4351322;32;20303;-58
2022/12/14 11:45:32;;;;;;;4.13;3.83;;;;;;;3.32;80.95;93553.94;4354985;32;20330;-58
2022/12/14 11:48:19;;;;;;;3.80;3.60;;;;;;;3.26;82.88;93544.63;4369093;32;20338;-58
2022/12/14 11:50:48;;;;;;;12.20;10.40;;;;;;;3.07;83.10;93537.63;4363281;32;20277;-58
2022/12/14 11:53:18;;;;;;;4.57;4.27;;;;;;;3.07;82.91;93539.47;4357125;32;20386;-58
2022/12/14 11:55:56;;;;;;;4.00;3.80;;;;;;;2.79;84.39;93545.72;4318672;32;20292;-58
2022/12/14 11:58:30;;;;;;;2.67;2.57;;;;;;;2.76;85.53;93541.84;4323973;32;20261;-58
2022/12/14 12:01:13;;;;;;;2.50;2.40;;;;;;;2.94;84.55;93556.69;4357641;32;20294;-60
2022/12/14 12:04:02;;;;;;;4.07;3.77;;;;;;;2.79;84.63;93554.34;4362059;32;20303;-58
2022/12/14 12:06:29;;;;;;;3.10;2.97;;;;;;;3.19;83.59;93544.22;4363093;32;20304;-58
2022/12/14 12:09:01;;;;;;;3.30;3.17;;;;;;;3.14;83.09;93558.19;4358129;32;20296;-59
2022/12/14 12:11:33;;;;;;;2.93;2.83;;;;;;;3.32;82.54;93573.06;4358492;32;20321;-59
2022/12/14 12:14:28;;;;;;;3.57;3.37;;;;;;;3.33;82.27;93566.72;4345843;32;20435;-58
2022/12/14 12:16:54;;;;;;;2.73;2.57;;;;;;;3.17;82.37;93554.97;4335512;32;20278;-58
2022/12/14 12:19:36;;;;;;;4.17;3.97;;;;;;;3.19;83.89;93549.44;4359024;32;20319;-59